createdAt,value
2022-10-12T00:01:07.106Z,99407.50
2022-10-12T00:03:35.047Z,99402.50
2022-10-12T00:06:11.159Z,99407.91
2022-10-12T00:08:39.355Z,99401.78
2022-10-12T00:11:07.456Z,99396.75
2022-10-12T00:13:34.032Z,99399.75
2022-10-12T00:16:05.856Z,99395.25
2022-10-12T00:18:34.034Z,99398.31
2022-10-12T00:21:06.735Z,99396.25
2022-10-12T00:23:35.258Z,99397.19
2022-10-12T00:26:04.638Z,99394.91
2022-10-12T00:28:31.747Z,99401.38
2022-10-12T00:30:58.776Z,99393.81
2022-10-12T00:33:25.317Z,99399.16
2022-10-12T00:35:54.834Z,99396.63
2022-10-12T00:38:22.535Z,99395.44
2022-10-12T00:40:49.124Z,99397.56
2022-10-12T00:43:29.601Z,99396.50
2022-10-12T00:45:57.482Z,99397.47
2022-10-12T00:48:24.547Z,99401.53
2022-10-12T00:50:52.177Z,99391.34
2022-10-12T00:53:22.846Z,99402.09
2022-10-12T00:55:54.173Z,99401.34
2022-10-12T00:58:21.716Z,99393.94
2022-10-12T01:00:48.637Z,99391.50
2022-10-12T01:03:20.270Z,99401.78
2022-10-12T01:05:47.093Z,99398.84
2022-10-12T01:08:16.118Z,99401.72
2022-10-12T01:10:42.825Z,99402.72
2022-10-12T01:13:09.420Z,99399.91
2022-10-12T01:15:48.493Z,99397.94
2022-10-12T01:18:43.558Z,99395.47
2022-10-12T01:21:17.268Z,99390.41
2022-10-12T01:24:14.922Z,99400.34
2022-10-12T01:27:03.195Z,99393.59
2022-10-12T01:30:07.328Z,99397.72
2022-10-12T01:32:36.759Z,99396.94
2022-10-12T01:35:28.950Z,99405.50
2022-10-12T01:38:24.423Z,99401.31
2022-10-12T01:40:56.871Z,99395.13
2022-10-12T01:43:23.856Z,99401.00
2022-10-12T01:45:50.626Z,99401.50
2022-10-12T01:48:17.803Z,99408.53
2022-10-12T01:50:53.829Z,99407.72
2022-10-12T01:53:29.333Z,99405.75
2022-10-12T01:56:21.511Z,99404.75
2022-10-12T01:59:04.385Z,99390.44
2022-10-12T02:01:57.829Z,99391.88
2022-10-12T02:04:34.934Z,99399.84
2022-10-12T02:07:07.800Z,99401.06
2022-10-12T02:09:35.981Z,99399.47
2022-10-12T02:12:09.101Z,99404.63
2022-10-12T02:14:40.737Z,99393.34
2022-10-12T02:17:11.862Z,99394.56
2022-10-12T02:19:55.050Z,99389.34
2022-10-12T02:22:23.547Z,99381.31
2022-10-12T02:24:52.441Z,99386.53
2022-10-12T02:27:21.275Z,99382.72
2022-10-12T02:29:48.519Z,99379.91
2022-10-12T02:32:35.627Z,99383.91
2022-10-12T02:35:10.462Z,99378.09
2022-10-12T02:38:20.941Z,99374.47
2022-10-12T02:41:02.117Z,99376.53
2022-10-12T02:43:33.058Z,99376.53
2022-10-12T02:46:00.356Z,99383.78
2022-10-12T02:48:29.114Z,99384.44
2022-10-12T02:50:57.933Z,99382.50
2022-10-12T02:53:27.771Z,99389.13
2022-10-12T02:56:01.857Z,99385.13
2022-10-12T02:58:28.361Z,99392.75
2022-10-12T03:00:54.861Z,99392.97
2022-10-12T03:03:21.414Z,99386.56
2022-10-12T03:05:47.871Z,99384.13
2022-10-12T03:08:14.320Z,99394.94
2022-10-12T03:10:40.756Z,99403.94
2022-10-12T03:13:07.166Z,99397.53
2022-10-12T03:15:36.039Z,99396.50
2022-10-12T03:18:02.555Z,99399.50
2022-10-12T03:20:29.048Z,99395.09
2022-10-12T03:22:55.914Z,99391.50
2022-10-12T03:25:22.821Z,99376.31
2022-10-12T03:27:49.236Z,99383.72
2022-10-12T03:30:15.783Z,99378.31
2022-10-12T03:32:42.318Z,99375.91
2022-10-12T03:35:09.254Z,99377.94
2022-10-12T03:37:35.973Z,99376.94
2022-10-12T03:40:03.324Z,99373.50
2022-10-12T03:42:29.832Z,99365.28
2022-10-12T03:44:56.395Z,99376.94
2022-10-12T03:47:22.945Z,99380.53
2022-10-12T03:49:49.472Z,99371.31
2022-10-12T03:52:15.996Z,99369.31
2022-10-12T03:54:42.485Z,99372.31
2022-10-12T03:57:08.961Z,99367.09
2022-10-12T03:59:35.410Z,99366.50
2022-10-12T04:02:02.513Z,99374.69
2022-10-12T04:04:28.917Z,99378.50
2022-10-12T04:06:55.416Z,99379.53
2022-10-12T04:09:21.924Z,99383.13
2022-10-12T04:11:48.421Z,99374.94
2022-10-12T04:14:14.837Z,99376.13
2022-10-12T04:16:41.258Z,99371.31
2022-10-12T04:19:13.990Z,99370.50
2022-10-12T04:21:40.992Z,99367.50
2022-10-12T04:24:07.901Z,99364.31
2022-10-12T04:26:34.425Z,99365.09
2022-10-12T04:29:00.997Z,99375.31
2022-10-12T04:31:27.585Z,99366.09
2022-10-12T04:33:56.869Z,99364.50
2022-10-12T04:36:24.556Z,99369.69
2022-10-12T04:38:51.310Z,99370.13
2022-10-12T04:41:17.857Z,99378.53
2022-10-12T04:43:44.451Z,99382.94
2022-10-12T04:46:11.512Z,99384.56
2022-10-12T04:48:38.321Z,99383.97
2022-10-12T04:51:06.167Z,99384.34
2022-10-12T04:53:33.023Z,99387.97
2022-10-12T04:56:03.541Z,99383.94
2022-10-12T04:58:30.069Z,99386.31
2022-10-12T05:00:56.907Z,99393.34
2022-10-12T05:03:24.132Z,99385.34
2022-10-12T05:05:51.266Z,99391.13
2022-10-12T05:08:17.960Z,99395.91
2022-10-12T05:10:46.168Z,99398.31
2022-10-12T05:13:13.760Z,99393.88
2022-10-12T05:15:42.551Z,99390.81
2022-10-12T05:18:09.502Z,99397.38
2022-10-12T05:20:36.216Z,99399.16
2022-10-12T05:23:02.852Z,99394.13
2022-10-12T05:25:29.688Z,99401.16
2022-10-12T05:27:57.194Z,99400.78
2022-10-12T05:30:24.585Z,99404.56
2022-10-12T05:32:51.108Z,99402.94
2022-10-12T05:35:17.756Z,99403.53
2022-10-12T05:37:44.429Z,99405.78
2022-10-12T05:40:11.563Z,99400.16
2022-10-12T05:42:38.512Z,99405.53
2022-10-12T05:45:06.206Z,99402.56
2022-10-12T05:47:32.728Z,99408.59
2022-10-12T05:49:59.261Z,99407.00
2022-10-12T05:52:25.816Z,99408.00
2022-10-12T05:54:52.348Z,99411.44
2022-10-12T05:57:19.521Z,99417.84
2022-10-12T05:59:46.326Z,99423.81
2022-10-12T06:02:18.961Z,99421.81
2022-10-12T06:04:45.597Z,99416.25
2022-10-12T06:07:12.334Z,99415.31
2022-10-12T06:09:39.039Z,99413.75
2022-10-12T06:12:07.751Z,99417.97
2022-10-12T06:14:34.267Z,99418.97
2022-10-12T06:17:07.865Z,99419.84
2022-10-12T06:19:34.442Z,99415.31
2022-10-12T06:22:01.122Z,99412.53
2022-10-12T06:24:27.670Z,99409.16
2022-10-12T06:26:54.173Z,99409.00
2022-10-12T06:29:23.353Z,99404.22
2022-10-12T06:31:51.952Z,99403.19
2022-10-12T06:34:18.743Z,99407.63
2022-10-12T06:36:45.343Z,99411.63
2022-10-12T06:39:12.014Z,99416.59
2022-10-12T06:41:39.095Z,99416.81
2022-10-12T06:44:05.708Z,99421.88
2022-10-12T06:46:32.228Z,99414.63
2022-10-12T06:48:58.715Z,99417.84
2022-10-12T06:51:25.324Z,99422.25
2022-10-12T06:53:55.369Z,99417.63
2022-10-12T06:56:22.074Z,99421.25
2022-10-12T06:58:53.971Z,99419.19
2022-10-12T07:01:20.467Z,99418.78
2022-10-12T07:03:46.968Z,99425.66
2022-10-12T07:06:14.584Z,99435.72
2022-10-12T07:08:42.070Z,99434.50
2022-10-12T07:11:11.773Z,99434.91
2022-10-12T07:13:38.857Z,99439.72
2022-10-12T07:16:05.776Z,99435.28
2022-10-12T07:18:32.588Z,99434.88
2022-10-12T07:20:59.885Z,99436.84
2022-10-12T07:23:27.796Z,99437.63
2022-10-12T07:25:54.722Z,99430.94
2022-10-12T07:28:22.211Z,99439.19
2022-10-12T07:30:48.971Z,99430.56
2022-10-12T07:33:16.090Z,99438.75
2022-10-12T07:36:03.259Z,99430.94
2022-10-12T07:38:29.815Z,99436.56
2022-10-12T07:40:59.991Z,99434.00
2022-10-12T07:43:27.161Z,99442.13
2022-10-12T07:45:53.669Z,99442.06
2022-10-12T07:48:20.879Z,99443.38
2022-10-12T07:50:47.670Z,99436.78
2022-10-12T07:53:14.284Z,99435.28
2022-10-12T07:55:41.108Z,99434.56
2022-10-12T07:58:11.893Z,99422.34
2022-10-12T08:00:38.637Z,99422.53
2022-10-12T08:03:05.172Z,99419.81
2022-10-12T08:05:31.696Z,99422.53
2022-10-12T08:08:00.246Z,99420.31
2022-10-12T08:10:27.049Z,99421.66
2022-10-12T08:12:53.640Z,99410.72
2022-10-12T08:15:20.641Z,99411.13
2022-10-12T08:17:47.336Z,99418.25
2022-10-12T08:20:16.438Z,99410.09
2022-10-12T08:22:43.101Z,99410.69
2022-10-12T08:25:09.623Z,99407.03
2022-10-12T08:27:38.454Z,99409.25
2022-10-12T08:30:06.655Z,99401.47
2022-10-12T08:32:33.359Z,99395.59
2022-10-12T08:35:00.449Z,99388.63
2022-10-12T08:37:27.066Z,99386.22
2022-10-12T08:39:53.745Z,99380.78
2022-10-12T08:42:55.528Z,99376.78
2022-10-12T08:45:41.544Z,99368.38
2022-10-12T08:48:12.257Z,99375.44
2022-10-12T08:50:40.736Z,99367.72
2022-10-12T08:53:26.264Z,99365.97
2022-10-12T08:55:53.010Z,99359.88
2022-10-12T08:58:23.232Z,99356.97
2022-10-12T09:00:59.862Z,99353.41
2022-10-12T09:03:40.425Z,99366.41
2022-10-12T09:06:14.145Z,99354.72
2022-10-12T09:09:03.055Z,99363.91
2022-10-12T09:11:38.896Z,99358.22
2022-10-12T09:14:06.999Z,99361.91
2022-10-12T09:16:39.430Z,99360.13
2022-10-12T09:19:18.969Z,99362.47
2022-10-12T09:21:48.510Z,99358.72
2022-10-12T09:24:41.994Z,99360.53
2022-10-12T09:27:20.172Z,99361.28
2022-10-12T09:29:55.339Z,99363.91
2022-10-12T09:32:49.124Z,99360.94
2022-10-12T09:35:16.158Z,99369.50
2022-10-12T09:37:52.897Z,99367.38
2022-10-12T09:40:30.486Z,99360.97
2022-10-12T09:43:03.160Z,99360.88
2022-10-12T09:45:35.083Z,99351.34
2022-10-12T09:48:10.683Z,99354.22
2022-10-12T09:50:44.692Z,99353.06
2022-10-12T09:53:27.471Z,99354.47
2022-10-12T09:56:28.971Z,99344.44
2022-10-12T09:59:08.300Z,99344.25
2022-10-12T10:01:36.260Z,99343.84
2022-10-12T10:04:24.079Z,99345.13
2022-10-12T10:06:51.137Z,99346.53
2022-10-12T10:09:26.795Z,99349.72
2022-10-12T10:11:53.588Z,99349.66
2022-10-12T10:14:20.150Z,99353.28
2022-10-12T10:16:51.668Z,99352.41
2022-10-12T10:19:21.783Z,99345.84
2022-10-12T10:21:48.418Z,99351.53
2022-10-12T10:24:35.377Z,99357.09
2022-10-12T10:27:04.806Z,99357.47
2022-10-12T10:29:41.674Z,99354.41
2022-10-12T10:32:15.750Z,99362.97
2022-10-12T10:34:45.912Z,99361.31
2022-10-12T10:37:23.162Z,99358.28
2022-10-12T10:39:51.625Z,99352.59
2022-10-12T10:42:23.340Z,99347.25
2022-10-12T10:44:53.355Z,99354.69
2022-10-12T10:47:20.036Z,99348.66
2022-10-12T10:49:52.133Z,99345.47
2022-10-12T10:52:25.857Z,99353.63
2022-10-12T10:55:10.575Z,99354.47
2022-10-12T10:57:41.304Z,99358.19
2022-10-12T11:00:37.947Z,99349.13
2022-10-12T11:03:31.296Z,99347.00
2022-10-12T11:06:14.212Z,99348.81
2022-10-12T11:08:43.668Z,99348.22
2022-10-12T11:11:18.806Z,99341.63
2022-10-12T11:13:55.748Z,99341.38
2022-10-12T11:16:43.725Z,99335.03
2022-10-12T11:19:34.177Z,99338.53
2022-10-12T11:22:06.097Z,99330.09
2022-10-12T11:24:44.041Z,99332.84
2022-10-12T11:27:33.939Z,99329.97
2022-10-12T11:30:11.645Z,99324.03
2022-10-12T11:32:49.813Z,99321.56
2022-10-12T11:35:30.375Z,99312.66
2022-10-12T11:38:21.414Z,99308.19
2022-10-12T11:41:31.211Z,99303.69
2022-10-12T11:44:04.002Z,99302.06
2022-10-12T11:46:38.592Z,99304.66
2022-10-12T11:49:20.793Z,99309.44
2022-10-12T11:51:50.501Z,99297.81
2022-10-12T11:54:40.318Z,99292.53
2022-10-12T11:57:17.695Z,99295.94
2022-10-12T11:59:54.887Z,99287.47
2022-10-12T12:02:38.163Z,99292.72
2022-10-12T12:05:21.707Z,99284.88
2022-10-12T12:11:25.231Z,99282.47
2022-10-12T12:14:21.241Z,99276.63
2022-10-12T12:16:49.678Z,99272.94
2022-10-12T12:19:37.045Z,99283.28
2022-10-12T12:22:17.044Z,99274.53
2022-10-12T12:24:58.041Z,99270.03
2022-10-12T12:27:32.639Z,99269.28
2022-10-12T12:30:02.095Z,99265.56
2022-10-12T12:32:52.271Z,99259.75
2022-10-12T12:35:24.400Z,99263.69
2022-10-12T12:38:20.736Z,99264.94
2022-10-12T12:41:17.742Z,99262.53
2022-10-12T12:43:56.415Z,99260.75
2022-10-12T12:46:25.593Z,99258.13
2022-10-12T12:48:52.708Z,99256.03
2022-10-12T12:51:45.969Z,99248.06
2022-10-12T12:54:20.631Z,99245.69
2022-10-12T12:57:06.146Z,99243.56
2022-10-12T13:00:06.791Z,99242.75
2022-10-12T13:02:53.332Z,99241.38
2022-10-12T13:06:00.049Z,99247.59
2022-10-12T13:08:41.675Z,99240.94
2022-10-12T13:11:45.747Z,99231.41
2022-10-12T13:14:43.443Z,99233.00
2022-10-12T13:17:54.330Z,99223.38
2022-10-12T13:20:29.050Z,99219.13
2022-10-12T13:23:02.996Z,99221.53
2022-10-12T13:25:56.238Z,99213.00
2022-10-12T13:28:28.797Z,99215.13
2022-10-12T13:31:00.207Z,99219.63
2022-10-12T13:33:39.590Z,99219.84
2022-10-12T13:36:13.320Z,99221.34
2022-10-12T13:38:40.535Z,99223.47
2022-10-12T13:41:12.136Z,99223.75
2022-10-12T13:43:46.613Z,99218.41
2022-10-12T13:46:37.659Z,99218.97
2022-10-12T13:49:17.677Z,99207.31
2022-10-12T13:51:48.216Z,99204.03
2022-10-12T13:54:27.042Z,99201.63
2022-10-12T13:57:01.288Z,99195.81
2022-10-12T13:59:33.459Z,99194.56
2022-10-12T14:02:02.299Z,99189.81
2022-10-12T14:04:35.138Z,99194.00
2022-10-12T14:07:07.439Z,99196.38
2022-10-12T14:09:43.533Z,99188.16
2022-10-12T14:12:11.446Z,99193.47
2022-10-12T14:14:42.860Z,99197.28
2022-10-12T14:17:20.894Z,99192.22
2022-10-12T14:19:58.895Z,99193.28
2022-10-12T14:22:29.598Z,99184.78
2022-10-12T14:25:08.501Z,99190.88
2022-10-12T14:27:38.908Z,99187.97
2022-10-12T14:30:23.400Z,99186.31
2022-10-12T14:32:53.938Z,99192.84
2022-10-12T14:35:26.513Z,99201.94
2022-10-12T14:37:54.974Z,99206.78
2022-10-12T14:40:39.207Z,99208.63
2022-10-12T14:43:21.248Z,99201.47
2022-10-12T14:45:47.857Z,99189.03
2022-10-12T14:48:18.999Z,99198.84
2022-10-12T14:50:46.483Z,99196.19
2022-10-12T14:53:14.776Z,99198.84
2022-10-12T14:55:42.586Z,99203.06
2022-10-12T14:58:15.000Z,99200.91
2022-10-12T15:00:42.547Z,99205.66
2022-10-12T15:03:09.180Z,99207.19
2022-10-12T15:05:35.940Z,99209.81
2022-10-12T15:08:08.804Z,99204.03
2022-10-12T15:10:37.021Z,99211.34
2022-10-12T15:13:23.831Z,99205.78
2022-10-12T15:15:52.696Z,99208.94
2022-10-12T15:18:19.321Z,99206.44
2022-10-12T15:20:49.378Z,99211.88
2022-10-12T15:23:16.684Z,99211.59
2022-10-12T15:25:56.518Z,99200.03
2022-10-12T15:28:23.555Z,99210.28
2022-10-12T15:33:40.500Z,99218.19
2022-10-12T15:36:10.228Z,99213.06
2022-10-12T15:38:37.197Z,99213.34
2022-10-12T15:41:04.206Z,99217.50
2022-10-12T15:43:33.684Z,99216.31
2022-10-12T15:46:02.712Z,99218.25
2022-10-12T15:48:30.572Z,99219.94
2022-10-12T15:50:57.296Z,99214.09
2022-10-12T15:53:25.720Z,99215.22
2022-10-12T15:55:53.988Z,99215.75
2022-10-12T15:58:20.921Z,99213.97
2022-10-12T16:00:48.019Z,99214.94
2022-10-12T16:03:25.886Z,99213.72
2022-10-12T16:05:53.983Z,99215.22
2022-10-12T16:08:20.952Z,99215.22
2022-10-12T16:10:48.389Z,99218.19
2022-10-12T16:13:16.364Z,99218.75
2022-10-12T16:15:44.414Z,99214.06
2022-10-12T16:18:11.458Z,99213.53
2022-10-12T16:20:39.411Z,99213.47
2022-10-12T16:23:18.953Z,99220.06
2022-10-12T16:25:45.883Z,99216.25
2022-10-12T16:28:12.618Z,99219.81
2022-10-12T16:30:41.062Z,99217.41
2022-10-12T16:33:10.642Z,99223.22
2022-10-12T16:35:40.487Z,99226.06
2022-10-12T16:38:09.321Z,99226.56
2022-10-12T16:40:39.128Z,99229.19
2022-10-12T16:43:06.150Z,99231.03
2022-10-12T16:45:36.495Z,99235.34
2022-10-12T16:48:03.923Z,99233.72
2022-10-12T16:50:30.604Z,99226.91
2022-10-12T16:52:57.956Z,99223.28
2022-10-12T16:55:24.595Z,99234.78
2022-10-12T16:57:51.311Z,99236.53
2022-10-12T17:00:20.263Z,99229.44
2022-10-12T17:02:48.027Z,99223.16
2022-10-12T17:05:14.856Z,99229.91
2022-10-12T17:07:41.513Z,99226.25
2022-10-12T17:10:08.611Z,99241.72
2022-10-12T17:12:35.880Z,99241.19
2022-10-12T17:15:02.621Z,99248.00
2022-10-12T17:17:29.327Z,99247.69
2022-10-12T17:19:56.414Z,99245.63
2022-10-12T17:22:23.041Z,99246.97
2022-10-12T17:24:49.650Z,99248.09
2022-10-12T17:27:16.904Z,99250.19
2022-10-12T17:29:44.068Z,99243.81
2022-10-12T17:36:09.414Z,99254.94
2022-10-12T17:38:36.987Z,99247.69
2022-10-12T17:41:05.107Z,99244.53
2022-10-12T17:43:32.354Z,99241.00
2022-10-12T17:46:02.184Z,99243.84
2022-10-12T17:48:30.180Z,99238.94
2022-10-12T17:51:02.744Z,99238.19
2022-10-12T17:53:29.414Z,99239.50
2022-10-12T17:56:01.130Z,99238.41
2022-10-12T17:58:28.388Z,99239.78
2022-10-12T18:01:03.451Z,99238.34
2022-10-12T18:03:30.263Z,99244.34
2022-10-12T18:06:03.444Z,99244.19
2022-10-12T18:08:30.366Z,99239.22
2022-10-12T18:11:00.777Z,99244.50
2022-10-12T18:13:28.875Z,99253.06
2022-10-12T18:15:55.987Z,99250.03
2022-10-12T18:18:22.666Z,99241.59
2022-10-12T18:20:49.649Z,99238.97
2022-10-12T18:23:16.319Z,99238.59
2022-10-12T18:25:43.703Z,99238.13
2022-10-12T18:28:11.735Z,99234.78
2022-10-12T18:30:45.590Z,99229.91
2022-10-12T18:33:12.238Z,99241.66
2022-10-12T18:35:38.721Z,99243.94
2022-10-12T18:38:05.316Z,99242.66
2022-10-12T18:40:36.567Z,99246.19
2022-10-12T18:43:06.012Z,99248.75
2022-10-12T18:45:35.185Z,99248.50
2022-10-12T18:48:06.383Z,99250.22
2022-10-12T18:50:35.337Z,99256.03
2022-10-12T18:53:01.921Z,99257.88
2022-10-12T18:55:28.524Z,99254.22
2022-10-12T18:57:55.255Z,99256.06
2022-10-12T19:00:26.421Z,99255.13
2022-10-12T19:02:52.954Z,99256.06
2022-10-12T19:05:19.552Z,99245.78
2022-10-12T19:07:45.993Z,99246.44
2022-10-12T19:10:12.637Z,99248.03
2022-10-12T19:12:43.375Z,99254.19
2022-10-12T19:15:12.125Z,99252.59
2022-10-12T19:17:38.532Z,99249.63
2022-10-12T19:20:05.479Z,99253.53
2022-10-12T19:22:31.937Z,99251.13
2022-10-12T19:24:59.919Z,99253.63
2022-10-12T19:27:26.442Z,99252.63
2022-10-12T19:29:52.978Z,99245.31
2022-10-12T19:32:19.861Z,99248.47
2022-10-12T19:34:50.025Z,99253.06
2022-10-12T19:37:16.548Z,99247.72
2022-10-12T19:39:45.009Z,99243.03
2022-10-12T19:42:11.440Z,99246.91
2022-10-12T19:44:38.075Z,99246.22
2022-10-12T19:47:04.899Z,99249.84
2022-10-12T19:49:36.433Z,99253.03
2022-10-12T19:52:03.872Z,99255.88
2022-10-12T19:54:34.078Z,99256.81
2022-10-12T19:57:05.666Z,99253.84
2022-10-12T19:59:32.143Z,99248.81
2022-10-12T20:02:01.976Z,99246.19
2022-10-12T20:04:30.062Z,99256.81
2022-10-12T20:06:56.718Z,99255.34
2022-10-12T20:09:23.243Z,99252.25
2022-10-12T20:11:50.044Z,99246.31
2022-10-12T20:14:18.877Z,99245.50
2022-10-12T20:16:45.523Z,99240.94
2022-10-12T20:19:12.216Z,99247.06
2022-10-12T20:21:38.860Z,99242.81
2022-10-12T20:24:11.949Z,99242.81
2022-10-12T20:26:38.800Z,99252.84
2022-10-12T20:29:05.351Z,99246.25
2022-10-12T20:31:31.942Z,99253.53
2022-10-12T20:33:58.607Z,99258.41
2022-10-12T20:36:28.438Z,99262.06
2022-10-12T20:38:55.442Z,99261.31
2022-10-12T20:41:23.175Z,99263.22
2022-10-12T20:43:49.654Z,99258.28
2022-10-12T20:46:18.461Z,99262.63
2022-10-12T20:48:45.688Z,99262.22
2022-10-12T20:51:28.908Z,99259.38
2022-10-12T20:53:59.048Z,99256.50
2022-10-12T20:56:27.348Z,99262.00
2022-10-12T20:58:55.359Z,99268.38
2022-10-12T21:01:23.000Z,99263.34
2022-10-12T21:03:49.705Z,99255.44
2022-10-12T21:06:17.357Z,99260.47
2022-10-12T21:08:43.811Z,99258.41
2022-10-12T21:11:11.037Z,99256.16
2022-10-12T21:13:42.282Z,99257.75
2022-10-12T21:16:13.369Z,99258.88
2022-10-12T21:18:41.320Z,99255.66
2022-10-12T21:21:12.838Z,99257.25
2022-10-12T21:23:41.210Z,99258.28
2022-10-12T21:26:12.580Z,99262.50
2022-10-12T21:28:39.417Z,99268.03
2022-10-12T21:31:06.170Z,99263.44
2022-10-12T21:33:35.065Z,99260.16
2022-10-12T21:36:07.849Z,99265.44
2022-10-12T21:38:34.625Z,99262.34
2022-10-12T21:41:01.192Z,99265.66
2022-10-12T21:43:27.636Z,99257.78
2022-10-12T21:45:56.274Z,99263.53
2022-10-12T21:48:22.785Z,99263.97
2022-10-12T21:50:49.301Z,99251.09
2022-10-12T21:53:15.957Z,99247.09
2022-10-12T21:55:42.383Z,99247.78
2022-10-12T21:58:08.847Z,99251.34
2022-10-12T22:00:35.339Z,99244.81
2022-10-12T22:03:02.032Z,99241.47
2022-10-12T22:05:28.578Z,99247.78
2022-10-12T22:07:57.998Z,99241.38
2022-10-12T22:10:24.706Z,99247.75
2022-10-12T22:12:51.271Z,99235.28
2022-10-12T22:15:17.822Z,99240.88
2022-10-12T22:17:44.253Z,99244.47
2022-10-12T22:20:11.328Z,99245.72
2022-10-12T22:22:38.154Z,99239.53
2022-10-12T22:25:05.080Z,99233.44
2022-10-12T22:27:31.735Z,99225.81
2022-10-12T22:30:01.612Z,99231.91
2022-10-12T22:32:28.145Z,99224.13
2022-10-12T22:34:54.771Z,99224.00
2022-10-12T22:37:22.082Z,99218.75
2022-10-12T22:39:48.635Z,99221.56
2022-10-12T22:42:15.140Z,99230.59
2022-10-12T22:44:41.600Z,99222.09
2022-10-12T22:47:08.082Z,99218.25
2022-10-12T22:49:34.618Z,99222.47
2022-10-12T22:52:01.116Z,99218.25
2022-10-12T22:54:27.707Z,99217.50
2022-10-12T22:56:54.383Z,99219.75
2022-10-12T22:59:20.944Z,99212.56
2022-10-12T23:01:47.570Z,99206.13
2022-10-12T23:04:14.146Z,99208.78
2022-10-12T23:06:40.655Z,99210.41
2022-10-12T23:09:07.298Z,99218.41
2022-10-12T23:11:33.882Z,99220.41
2022-10-12T23:14:00.845Z,99230.66
2022-10-12T23:16:30.004Z,99229.44
2022-10-12T23:18:59.706Z,99225.59
2022-10-12T23:21:27.914Z,99224.44
2022-10-12T23:23:54.558Z,99224.94
2022-10-12T23:26:23.268Z,99224.56
2022-10-12T23:28:50.757Z,99223.53
2022-10-12T23:31:22.232Z,99217.38
2022-10-12T23:33:48.895Z,99225.56
2022-10-12T23:36:17.420Z,99218.44
2022-10-12T23:38:44.724Z,99218.44
2022-10-12T23:41:12.294Z,99212.34
2022-10-12T23:43:38.889Z,99210.28
2022-10-12T23:46:05.752Z,99215.81
2022-10-12T23:48:33.264Z,99219.63
2022-10-12T23:51:00.369Z,99221.41
2022-10-12T23:53:27.323Z,99211.31
2022-10-12T23:55:54.428Z,99219.50
2022-10-12T23:58:21.174Z,99224.09
